createdAt,value
2023-02-28T00:00:23.889Z,2.00
2023-02-28T00:02:28.265Z,2.45
2023-02-28T00:06:33.849Z,1.33
2023-02-28T00:08:35.366Z,1.83
2023-02-28T00:10:39.979Z,1.48
2023-02-28T00:12:41.634Z,1.95
2023-02-28T00:14:46.045Z,1.48
2023-02-28T00:16:47.610Z,1.55
2023-02-28T00:18:52.197Z,1.40
2023-02-28T00:20:53.912Z,1.42
2023-02-28T00:22:58.737Z,1.63
2023-02-28T00:25:19.847Z,1.40
2023-02-28T00:27:21.392Z,1.05
2023-02-28T00:31:32.898Z,1.17
2023-02-28T00:33:34.407Z,1.02
2023-02-28T00:35:35.956Z,0.88
2023-02-28T00:37:40.299Z,1.23
2023-02-28T00:39:41.961Z,1.20
2023-02-28T00:41:43.726Z,1.42
2023-02-28T00:43:45.419Z,1.60
2023-02-28T00:45:46.940Z,1.25
2023-02-28T00:47:51.068Z,1.70
2023-02-28T00:49:52.898Z,1.40
2023-02-28T00:51:55.309Z,1.90
2023-02-28T00:54:15.623Z,1.40
2023-02-28T00:56:17.370Z,1.55
2023-02-28T00:58:21.833Z,1.70
2023-02-28T01:00:23.328Z,2.75
2023-02-28T01:02:30.487Z,1.58
2023-02-28T01:04:50.787Z,1.30
2023-02-28T01:06:58.334Z,1.58
2023-02-28T01:09:03.668Z,1.63
2023-02-28T01:11:08.811Z,1.50
2023-02-28T01:13:10.461Z,1.58
2023-02-28T01:15:17.696Z,1.30
2023-02-28T01:19:26.365Z,1.42
2023-02-28T01:21:31.503Z,1.73
2023-02-28T01:23:36.116Z,1.55
2023-02-28T01:25:37.877Z,1.38
2023-02-28T01:27:42.402Z,1.50
2023-02-28T01:29:44.018Z,1.20
2023-02-28T01:31:45.798Z,1.60
2023-02-28T01:33:47.445Z,1.83
2023-02-28T01:36:10.210Z,1.60
2023-02-28T01:38:22.185Z,1.27
2023-02-28T01:40:27.360Z,1.48
2023-02-28T01:42:28.851Z,1.88
2023-02-28T01:45:05.504Z,2.00
2023-02-28T01:47:07.131Z,1.52
2023-02-28T01:49:15.893Z,1.42
2023-02-28T01:51:19.816Z,1.60
2023-02-28T01:53:24.709Z,1.60
2023-02-28T01:55:29.658Z,2.03
2023-02-28T01:57:47.924Z,1.45
2023-02-28T02:00:15.727Z,1.52
2023-02-28T02:02:33.679Z,1.90
2023-02-28T02:05:14.199Z,2.58
2023-02-28T02:07:34.324Z,1.63
2023-02-28T02:09:48.793Z,2.22
2023-02-28T02:12:07.320Z,2.33
2023-02-28T02:14:39.687Z,1.77
2023-02-28T02:16:57.921Z,1.83
2023-02-28T02:19:17.832Z,1.98
2023-02-28T02:21:30.579Z,2.05
2023-02-28T02:24:02.565Z,1.40
2023-02-28T02:26:35.169Z,1.42
2023-02-28T02:29:06.936Z,1.90
2023-02-28T02:31:41.403Z,3.20
2023-02-28T02:33:53.123Z,1.95
2023-02-28T02:36:10.870Z,2.08
2023-02-28T02:38:17.972Z,1.95
2023-02-28T02:40:28.644Z,3.42
2023-02-28T02:42:38.040Z,2.00
2023-02-28T02:44:49.672Z,2.28
2023-02-28T02:47:02.399Z,1.58
2023-02-28T02:49:09.580Z,1.75
2023-02-28T02:53:23.688Z,1.80
2023-02-28T02:55:29.008Z,1.55
2023-02-28T02:57:56.737Z,1.90
2023-02-28T03:00:02.725Z,1.92
2023-02-28T03:02:09.754Z,2.45
2023-02-28T03:04:17.234Z,1.75
2023-02-28T03:06:21.577Z,1.67
2023-02-28T03:08:23.243Z,1.85
2023-02-28T03:10:44.684Z,2.05
2023-02-28T03:12:52.963Z,2.50
2023-02-28T03:15:06.063Z,1.98
2023-02-28T03:17:13.825Z,1.73
2023-02-28T03:19:37.269Z,2.33
2023-02-28T03:21:51.301Z,1.98
2023-02-28T03:24:12.714Z,3.97
2023-02-28T03:26:22.743Z,2.85
2023-02-28T03:28:45.918Z,2.13
2023-02-28T03:30:54.795Z,2.47
2023-02-28T03:33:02.294Z,2.17
2023-02-28T03:35:08.889Z,2.63
2023-02-28T03:37:15.871Z,2.38
2023-02-28T03:39:26.388Z,3.08
2023-02-28T03:41:40.000Z,2.42
2023-02-28T03:43:47.533Z,2.55
2023-02-28T03:45:50.548Z,2.20
2023-02-28T03:48:00.942Z,2.35
2023-02-28T03:50:08.785Z,3.38
2023-02-28T03:52:13.068Z,3.03
2023-02-28T03:54:17.107Z,2.97
2023-02-28T03:56:32.316Z,2.75
2023-02-28T03:58:49.030Z,2.63
2023-02-28T04:00:56.496Z,2.35
2023-02-28T04:02:58.265Z,2.88
2023-02-28T04:05:02.482Z,2.78
2023-02-28T04:07:22.725Z,2.78
2023-02-28T04:09:24.849Z,2.75
2023-02-28T04:11:35.925Z,3.17
2023-02-28T04:13:37.372Z,3.53
2023-02-28T04:15:38.967Z,2.38
2023-02-28T04:17:59.115Z,3.00
2023-02-28T04:20:00.670Z,2.80
2023-02-28T04:22:02.180Z,2.75
2023-02-28T04:24:04.238Z,2.60
2023-02-28T04:26:08.775Z,3.28
2023-02-28T04:28:16.406Z,4.45
2023-02-28T04:30:17.974Z,2.95
2023-02-28T04:32:22.463Z,3.15
2023-02-28T04:34:24.614Z,3.95
2023-02-28T04:36:26.731Z,3.47
2023-02-28T04:38:28.223Z,4.38
2023-02-28T04:40:29.746Z,2.97
2023-02-28T04:42:36.677Z,3.65
2023-02-28T04:44:38.204Z,3.78
2023-02-28T04:46:39.755Z,3.17
2023-02-28T04:48:41.427Z,4.13
2023-02-28T04:50:42.911Z,4.00
2023-02-28T04:52:50.546Z,3.95
2023-02-28T04:54:52.078Z,4.10
2023-02-28T04:56:56.471Z,3.95
2023-02-28T04:58:57.956Z,3.53
2023-02-28T05:01:14.626Z,3.95
2023-02-28T05:03:29.632Z,4.20
2023-02-28T05:05:44.075Z,3.80
2023-02-28T05:07:58.913Z,4.68
2023-02-28T05:10:23.177Z,4.07
2023-02-28T05:12:42.983Z,4.10
2023-02-28T05:15:13.563Z,3.25
2023-02-28T05:17:50.640Z,4.05
2023-02-28T05:20:15.596Z,3.05
2023-02-28T05:22:29.546Z,4.38
2023-02-28T05:24:42.247Z,3.25
2023-02-28T05:27:01.770Z,3.60
2023-02-28T05:29:24.993Z,4.13
2023-02-28T05:31:36.267Z,4.28
2023-02-28T05:33:57.445Z,6.22
2023-02-28T05:36:08.092Z,6.97
2023-02-28T05:38:15.539Z,6.82
2023-02-28T05:40:21.631Z,7.28
2023-02-28T05:42:23.149Z,6.90
2023-02-28T05:44:25.445Z,5.57
2023-02-28T05:46:30.046Z,5.70
2023-02-28T05:48:51.841Z,4.57
2023-02-28T05:50:53.367Z,5.13
2023-02-28T05:55:02.352Z,4.53
2023-02-28T05:57:08.018Z,5.10
2023-02-28T05:59:17.196Z,5.55
2023-02-28T06:03:22.945Z,4.55
2023-02-28T06:07:31.704Z,5.18
2023-02-28T06:09:33.564Z,4.60
2023-02-28T06:11:39.293Z,5.53
2023-02-28T06:13:41.955Z,4.60
2023-02-28T06:15:46.366Z,4.55
2023-02-28T06:17:50.496Z,5.50
2023-02-28T06:19:52.067Z,5.65
2023-02-28T06:22:12.208Z,4.57
2023-02-28T06:24:13.749Z,4.93
2023-02-28T06:26:34.113Z,4.78
2023-02-28T06:28:35.609Z,5.00
2023-02-28T06:30:38.322Z,5.07
2023-02-28T06:32:43.137Z,5.63
2023-02-28T06:34:44.625Z,6.00
2023-02-28T06:36:46.250Z,6.50
2023-02-28T06:38:55.658Z,6.78
2023-02-28T06:41:04.237Z,5.97
2023-02-28T06:43:05.701Z,6.78
2023-02-28T06:45:10.592Z,6.40
2023-02-28T06:47:14.905Z,7.82
2023-02-28T06:49:17.063Z,7.47
2023-02-28T06:51:23.447Z,8.15
2023-02-28T06:53:25.151Z,5.82
2023-02-28T06:55:27.502Z,6.93
2023-02-28T06:57:33.254Z,7.00
2023-02-28T06:59:53.351Z,6.65
2023-02-28T07:02:13.556Z,7.68
2023-02-28T07:04:18.272Z,7.40
2023-02-28T07:06:20.533Z,6.95
2023-02-28T07:08:25.324Z,7.72
2023-02-28T07:10:30.316Z,8.82
2023-02-28T07:12:34.606Z,12.73
2023-02-28T07:14:39.118Z,17.95
2023-02-28T07:16:43.540Z,16.40
2023-02-28T07:18:48.540Z,15.63
2023-02-28T07:20:54.256Z,16.85
2023-02-28T07:22:58.874Z,14.02
2023-02-28T07:25:07.243Z,14.15
2023-02-28T07:27:11.819Z,12.85
2023-02-28T07:29:13.357Z,11.68
2023-02-28T07:33:20.015Z,10.73
2023-02-28T07:35:21.483Z,10.57
2023-02-28T07:37:26.028Z,12.57
2023-02-28T07:39:46.101Z,10.82
2023-02-28T07:43:54.268Z,8.32
2023-02-28T07:45:56.273Z,9.05
2023-02-28T07:47:58.161Z,8.90
2023-02-28T07:50:00.008Z,8.07
2023-02-28T07:52:08.103Z,8.98
2023-02-28T07:54:09.844Z,9.10
2023-02-28T07:56:14.236Z,7.80
2023-02-28T07:58:15.693Z,7.47
2023-02-28T08:00:17.369Z,7.85
2023-02-28T08:02:19.534Z,8.48
2023-02-28T08:04:22.544Z,7.65
2023-02-28T08:06:27.087Z,6.35
2023-02-28T08:10:45.682Z,6.40
2023-02-28T08:13:02.658Z,7.57
2023-02-28T08:15:13.697Z,6.28
2023-02-28T08:17:26.297Z,6.25
2023-02-28T08:19:42.057Z,6.00
2023-02-28T08:21:53.768Z,5.57
2023-02-28T08:24:06.821Z,5.53
2023-02-28T08:26:20.736Z,5.97
2023-02-28T08:28:35.092Z,6.20
2023-02-28T08:30:43.605Z,6.93
2023-02-28T08:32:52.371Z,5.65
2023-02-28T08:35:09.747Z,5.75
2023-02-28T08:39:36.925Z,4.90
2023-02-28T08:41:40.282Z,5.28
2023-02-28T08:43:44.944Z,4.07
2023-02-28T08:46:05.884Z,4.03
2023-02-28T08:48:07.467Z,3.97
2023-02-28T08:50:11.976Z,3.97
2023-02-28T08:52:13.506Z,3.75
2023-02-28T08:54:20.417Z,3.15
2023-02-28T08:56:25.167Z,4.63
2023-02-28T08:58:29.913Z,4.55
2023-02-28T09:00:34.035Z,3.85
2023-02-28T09:02:35.801Z,4.05
2023-02-28T09:04:40.143Z,4.25
2023-02-28T09:06:41.732Z,3.75
2023-02-28T09:08:46.223Z,4.05
2023-02-28T09:10:50.589Z,3.97
2023-02-28T09:12:54.928Z,3.47
2023-02-28T09:15:02.950Z,4.93
2023-02-28T09:19:06.757Z,4.15
2023-02-28T09:23:15.151Z,4.20
2023-02-28T09:25:16.822Z,4.20
2023-02-28T09:27:25.521Z,4.85
2023-02-28T09:29:27.245Z,4.68
2023-02-28T09:31:29.284Z,4.60
2023-02-28T09:33:30.921Z,4.03
2023-02-28T09:35:35.092Z,4.22
2023-02-28T09:37:39.696Z,3.95
2023-02-28T09:39:41.414Z,3.72
2023-02-28T09:41:51.741Z,3.13
2023-02-28T09:43:59.511Z,3.00
2023-02-28T09:46:12.913Z,3.45
2023-02-28T09:48:17.118Z,3.00
2023-02-28T09:52:22.252Z,2.78
2023-02-28T09:54:32.089Z,3.10
2023-02-28T09:56:41.672Z,2.92
2023-02-28T09:58:55.841Z,2.88
2023-02-28T10:01:13.615Z,3.00
2023-02-28T10:03:30.108Z,2.58
2023-02-28T10:05:36.524Z,2.67
2023-02-28T10:07:58.473Z,2.42
2023-02-28T10:10:03.117Z,2.40
2023-02-28T10:12:07.938Z,2.38
2023-02-28T10:14:17.498Z,2.38
2023-02-28T10:16:23.750Z,2.38
2023-02-28T10:18:36.250Z,3.00
2023-02-28T10:20:42.252Z,3.20
2023-02-28T10:22:58.944Z,3.35
2023-02-28T10:25:05.932Z,3.45
2023-02-28T10:27:34.437Z,3.45
2023-02-28T10:29:35.944Z,4.00
2023-02-28T10:31:41.318Z,3.92
2023-02-28T10:33:43.045Z,3.95
2023-02-28T10:35:47.392Z,3.85
2023-02-28T10:38:13.980Z,3.70
2023-02-28T10:40:21.083Z,3.67
2023-02-28T10:42:27.450Z,4.32
2023-02-28T10:44:47.801Z,3.88
2023-02-28T10:49:04.482Z,3.55
2023-02-28T10:51:11.040Z,3.70
2023-02-28T10:53:17.994Z,3.80
2023-02-28T10:57:22.519Z,4.22
2023-02-28T10:59:28.268Z,3.20
2023-02-28T11:01:33.150Z,2.80
2023-02-28T11:03:36.125Z,2.50
2023-02-28T11:05:42.477Z,2.53
2023-02-28T11:07:53.441Z,2.90
2023-02-28T11:10:00.136Z,2.45
2023-02-28T11:12:11.858Z,2.80
2023-02-28T11:14:45.779Z,2.90
2023-02-28T11:16:56.565Z,2.50
2023-02-28T11:19:11.945Z,3.00
2023-02-28T11:21:45.841Z,2.80
2023-02-28T11:23:52.400Z,3.33
2023-02-28T11:26:00.290Z,3.55
2023-02-28T11:28:08.767Z,2.88
2023-02-28T11:30:28.590Z,3.10
2023-02-28T11:32:35.146Z,4.03
2023-02-28T11:34:39.275Z,3.22
2023-02-28T11:36:45.814Z,3.33
2023-02-28T11:38:54.033Z,3.47
2023-02-28T11:40:57.029Z,3.58
2023-02-28T11:43:14.046Z,3.70
2023-02-28T11:45:24.084Z,2.72
2023-02-28T11:47:58.021Z,2.55
2023-02-28T11:50:18.669Z,2.38
2023-02-28T11:52:23.656Z,2.35
2023-02-28T11:54:49.301Z,2.47
2023-02-28T11:56:59.770Z,2.75
2023-02-28T11:59:28.521Z,2.05
2023-02-28T12:02:02.703Z,2.78
2023-02-28T12:04:22.652Z,2.40
2023-02-28T12:06:24.051Z,1.92
2023-02-28T12:09:04.468Z,2.40
2023-02-28T12:11:14.812Z,2.22
2023-02-28T12:13:21.930Z,2.25
2023-02-28T12:15:38.461Z,2.15
2023-02-28T12:17:39.944Z,2.00
2023-02-28T12:19:45.361Z,1.77
2023-02-28T12:21:47.471Z,2.03
2023-02-28T12:23:54.879Z,1.88
2023-02-28T12:26:12.707Z,2.30
2023-02-28T12:28:15.816Z,2.05
2023-02-28T12:30:32.108Z,2.70
2023-02-28T12:32:39.518Z,2.00
2023-02-28T12:34:46.140Z,1.77
2023-02-28T12:36:51.017Z,1.58
2023-02-28T12:39:03.838Z,1.23
2023-02-28T12:41:16.934Z,1.50
2023-02-28T12:43:19.997Z,1.55
2023-02-28T12:45:26.080Z,1.08
2023-02-28T12:47:30.482Z,1.38
2023-02-28T12:49:32.745Z,1.45
2023-02-28T12:51:35.673Z,1.38
2023-02-28T12:53:47.196Z,1.45
2023-02-28T12:55:51.503Z,1.73
2023-02-28T12:58:06.559Z,1.42
2023-02-28T13:00:13.712Z,1.35
2023-02-28T13:02:21.846Z,1.23
2023-02-28T13:04:41.375Z,1.10
2023-02-28T13:06:53.827Z,1.10
2023-02-28T13:09:03.692Z,1.55
2023-02-28T13:11:13.144Z,1.40
2023-02-28T13:13:27.302Z,1.42
2023-02-28T13:15:32.239Z,1.20
2023-02-28T13:17:33.909Z,1.15
2023-02-28T13:19:46.393Z,1.52
2023-02-28T13:21:51.558Z,1.05
2023-02-28T13:23:57.803Z,1.67
2023-02-28T13:26:00.266Z,1.55
2023-02-28T13:28:05.405Z,1.50
2023-02-28T13:30:28.119Z,1.65
2023-02-28T13:32:34.097Z,1.88
2023-02-28T13:34:54.390Z,1.95
2023-02-28T13:37:25.849Z,1.88
2023-02-28T13:39:36.488Z,1.67
2023-02-28T13:41:45.236Z,1.35
2023-02-28T13:44:08.435Z,1.50
2023-02-28T13:46:14.034Z,1.77
2023-02-28T13:48:31.073Z,1.65
2023-02-28T13:50:38.676Z,1.77
2023-02-28T13:52:48.653Z,1.25
2023-02-28T13:55:17.142Z,1.05
2023-02-28T13:57:24.752Z,1.60
2023-02-28T13:59:30.769Z,1.60
2023-02-28T14:01:56.585Z,1.55
2023-02-28T14:04:16.437Z,1.20
2023-02-28T14:06:38.325Z,1.00
2023-02-28T14:08:46.880Z,1.20
2023-02-28T14:10:50.129Z,1.27
2023-02-28T14:13:01.699Z,1.73
2023-02-28T14:15:03.911Z,1.65
2023-02-28T14:17:16.198Z,1.58
2023-02-28T14:19:22.499Z,1.63
2023-02-28T14:21:37.986Z,1.85
2023-02-28T14:23:47.673Z,1.80
2023-02-28T14:26:08.422Z,1.60
2023-02-28T14:28:20.294Z,1.75
2023-02-28T14:30:39.646Z,2.45
2023-02-28T14:32:59.589Z,2.00
2023-02-28T14:35:11.770Z,1.90
2023-02-28T14:37:21.025Z,2.00
2023-02-28T14:39:26.789Z,1.80
2023-02-28T14:41:37.291Z,2.25
2023-02-28T14:43:54.088Z,2.25
2023-02-28T14:48:14.701Z,3.10
2023-02-28T14:50:27.003Z,1.88
2023-02-28T14:52:56.598Z,1.33
2023-02-28T14:55:19.498Z,1.45
2023-02-28T14:57:30.084Z,1.48
2023-02-28T14:59:35.773Z,1.67
2023-02-28T15:01:40.221Z,1.58
2023-02-28T15:03:45.778Z,2.78
2023-02-28T15:06:07.150Z,1.85
2023-02-28T15:08:15.764Z,1.95
2023-02-28T15:10:27.139Z,2.13
2023-02-28T15:12:31.704Z,1.80
2023-02-28T15:14:33.396Z,1.83
2023-02-28T15:16:41.814Z,1.50
2023-02-28T15:18:49.580Z,1.20
2023-02-28T15:20:51.948Z,1.63
2023-02-28T15:22:56.789Z,1.90
2023-02-28T15:24:58.834Z,1.50
2023-02-28T15:27:01.445Z,1.15
2023-02-28T15:29:07.159Z,1.92
2023-02-28T15:31:20.036Z,1.15
2023-02-28T15:33:23.136Z,1.92
2023-02-28T15:35:43.837Z,1.48
2023-02-28T15:37:49.375Z,1.50
2023-02-28T15:39:50.901Z,1.40
2023-02-28T15:44:37.015Z,2.15
2023-02-28T15:46:44.413Z,2.33
2023-02-28T15:48:45.971Z,1.52
2023-02-28T15:52:51.942Z,1.98
2023-02-28T15:54:53.822Z,2.08
2023-02-28T15:57:23.167Z,2.20
2023-02-28T15:59:29.166Z,2.40
2023-02-28T16:01:37.604Z,1.95
2023-02-28T16:03:41.801Z,2.22
2023-02-28T16:05:46.313Z,2.70
2023-02-28T16:07:50.738Z,2.30
2023-02-28T16:09:55.070Z,2.17
2023-02-28T16:12:03.402Z,2.22
2023-02-28T16:14:07.670Z,2.28
2023-02-28T16:16:16.461Z,2.28
2023-02-28T16:18:24.234Z,1.60
2023-02-28T16:20:30.347Z,2.10
2023-02-28T16:22:50.664Z,1.70
2023-02-28T16:24:52.172Z,1.80
2023-02-28T16:26:57.271Z,2.03
2023-02-28T16:28:58.933Z,2.20
2023-02-28T16:31:01.507Z,2.20
2023-02-28T16:33:03.070Z,2.53
2023-02-28T16:37:16.193Z,2.05
2023-02-28T16:39:18.057Z,2.50
2023-02-28T16:41:26.805Z,2.30
2023-02-28T16:43:31.066Z,2.53
2023-02-28T16:45:32.531Z,3.03
2023-02-28T16:47:34.448Z,2.95
2023-02-28T16:49:39.086Z,2.75
2023-02-28T16:51:43.255Z,2.45
2023-02-28T16:53:47.646Z,2.22
2023-02-28T16:55:49.324Z,2.15
2023-02-28T16:57:55.398Z,2.22
2023-02-28T16:59:59.606Z,2.35
2023-02-28T17:02:01.247Z,2.47
2023-02-28T17:04:02.830Z,2.60
2023-02-28T17:06:04.736Z,2.28
2023-02-28T17:08:06.585Z,2.80
2023-02-28T17:10:15.590Z,2.67
2023-02-28T17:12:20.146Z,2.25
2023-02-28T17:14:22.056Z,2.30
2023-02-28T17:16:27.200Z,1.80
2023-02-28T17:18:34.709Z,1.70
2023-02-28T17:20:45.217Z,1.48
2023-02-28T17:22:56.654Z,2.08
2023-02-28T17:25:19.402Z,1.50
2023-02-28T17:27:57.785Z,1.80
2023-02-28T17:30:39.109Z,1.65
2023-02-28T17:32:53.672Z,2.05
2023-02-28T17:35:05.726Z,1.20
2023-02-28T17:37:25.915Z,1.23
2023-02-28T17:39:50.926Z,1.50
2023-02-28T17:44:25.166Z,1.85
2023-02-28T17:46:39.731Z,1.80
2023-02-28T17:52:03.302Z,1.92
2023-02-28T17:54:10.369Z,2.20
2023-02-28T17:56:20.702Z,2.83
2023-02-28T17:58:23.405Z,2.45
2023-02-28T18:00:35.118Z,2.78
2023-02-28T18:02:44.228Z,2.67
2023-02-28T18:04:47.912Z,3.13
2023-02-28T18:06:53.842Z,3.25
2023-02-28T18:08:57.598Z,3.88
2023-02-28T18:11:06.863Z,3.60
2023-02-28T18:13:09.612Z,3.38
2023-02-28T18:15:18.894Z,4.38
2023-02-28T18:17:28.335Z,3.95
2023-02-28T18:19:32.263Z,3.88
2023-02-28T18:21:39.666Z,4.15
2023-02-28T18:23:50.363Z,4.63
2023-02-28T18:25:51.899Z,3.85
2023-02-28T18:30:19.366Z,4.05
2023-02-28T18:32:21.019Z,3.90
2023-02-28T18:34:41.024Z,3.60
2023-02-28T18:36:50.637Z,3.45
2023-02-28T18:38:59.010Z,4.38
2023-02-28T18:41:07.390Z,4.32
2023-02-28T18:43:28.341Z,3.67
2023-02-28T18:45:36.753Z,3.60
2023-02-28T18:47:56.929Z,3.60
2023-02-28T18:50:00.275Z,3.70
2023-02-28T18:52:05.480Z,4.07
2023-02-28T18:54:14.064Z,4.32
2023-02-28T18:56:18.336Z,5.32
2023-02-28T18:58:20.051Z,9.27
2023-02-28T19:00:27.589Z,8.93
2023-02-28T19:02:29.165Z,11.38
2023-02-28T19:04:31.990Z,5.80
2023-02-28T19:06:33.959Z,3.92
2023-02-28T19:08:35.482Z,4.25
2023-02-28T19:10:42.995Z,3.25
2023-02-28T19:12:47.270Z,2.00
2023-02-28T19:15:07.836Z,1.92
2023-02-28T19:17:09.377Z,1.65
2023-02-28T19:19:16.559Z,1.70
2023-02-28T19:21:21.503Z,1.75
2023-02-28T19:23:29.137Z,2.03
2023-02-28T19:25:40.079Z,1.90
2023-02-28T19:27:41.676Z,2.15
2023-02-28T19:29:43.189Z,1.75
2023-02-28T19:31:47.411Z,1.40
2023-02-28T19:33:49.250Z,1.60
2023-02-28T19:35:50.696Z,1.30
2023-02-28T19:37:55.502Z,1.23
2023-02-28T19:40:03.529Z,1.58
2023-02-28T19:42:05.068Z,1.20
2023-02-28T19:44:06.525Z,1.08
2023-02-28T19:46:26.722Z,1.38
2023-02-28T19:48:31.247Z,1.52
2023-02-28T19:50:32.881Z,0.90
2023-02-28T19:52:34.562Z,1.30
2023-02-28T19:54:36.220Z,1.35
2023-02-28T19:56:37.792Z,0.77
2023-02-28T19:58:39.743Z,0.95
2023-02-28T20:00:41.535Z,1.20
2023-02-28T20:02:50.957Z,1.00
2023-02-28T20:04:54.385Z,1.17
2023-02-28T20:06:56.138Z,0.75
2023-02-28T20:09:00.544Z,1.10
2023-02-28T20:11:06.136Z,0.88
2023-02-28T20:13:14.368Z,0.60
2023-02-28T20:15:16.969Z,0.70
2023-02-28T20:17:36.876Z,0.70
2023-02-28T20:19:38.319Z,0.88
2023-02-28T20:21:58.270Z,0.60
2023-02-28T20:23:59.786Z,0.90
2023-02-28T20:26:04.446Z,0.75
2023-02-28T20:28:06.860Z,0.65
2023-02-28T20:30:10.742Z,0.70
2023-02-28T20:32:14.271Z,0.70
2023-02-28T20:34:18.734Z,0.68
2023-02-28T20:36:23.635Z,0.73
2023-02-28T20:38:32.502Z,0.70
2023-02-28T20:40:38.941Z,0.60
2023-02-28T20:42:45.017Z,0.98
2023-02-28T20:44:51.306Z,1.40
2023-02-28T20:47:13.178Z,1.02
2023-02-28T20:49:17.103Z,0.57
2023-02-28T20:51:26.838Z,0.60
2023-02-28T20:53:37.484Z,0.60
2023-02-28T20:55:43.883Z,0.70
2023-02-28T20:58:06.121Z,0.65
2023-02-28T21:00:21.366Z,0.68
2023-02-28T21:02:23.293Z,1.08
2023-02-28T21:04:27.526Z,0.57
2023-02-28T21:06:31.838Z,0.80
2023-02-28T21:08:39.900Z,0.70
2023-02-28T21:10:41.683Z,0.90
2023-02-28T21:12:43.235Z,0.63
2023-02-28T21:14:44.921Z,0.60
2023-02-28T21:16:46.984Z,0.45
2023-02-28T21:18:48.948Z,0.43
2023-02-28T21:20:53.166Z,0.50
2023-02-28T21:23:00.388Z,0.73
2023-02-28T21:25:01.972Z,0.65
2023-02-28T21:27:06.423Z,0.90
2023-02-28T21:29:11.420Z,0.68
2023-02-28T21:31:16.573Z,0.70
2023-02-28T21:33:36.523Z,0.65
2023-02-28T21:35:38.204Z,0.60
2023-02-28T21:37:45.555Z,0.55
2023-02-28T21:39:53.118Z,0.60
2023-02-28T21:42:03.917Z,0.70
2023-02-28T21:44:26.470Z,0.60
2023-02-28T21:46:29.109Z,0.55
2023-02-28T21:48:34.260Z,0.45
2023-02-28T21:50:36.095Z,0.70
2023-02-28T21:52:41.233Z,0.50
2023-02-28T21:54:42.744Z,0.88
2023-02-28T21:56:44.519Z,0.90
2023-02-28T21:58:46.587Z,0.98
2023-02-28T22:00:49.122Z,0.80
2023-02-28T22:02:50.732Z,0.75
2023-02-28T22:04:52.681Z,0.85
2023-02-28T22:06:57.140Z,1.02
2023-02-28T22:08:59.781Z,0.60
2023-02-28T22:11:07.857Z,0.82
2023-02-28T22:13:15.355Z,0.85
2023-02-28T22:15:17.002Z,0.70
2023-02-28T22:19:22.699Z,0.77
2023-02-28T22:23:46.815Z,0.60
2023-02-28T22:25:51.125Z,1.20
2023-02-28T22:27:55.267Z,0.82
2023-02-28T22:29:59.441Z,0.90
2023-02-28T22:32:08.412Z,1.15
2023-02-28T22:34:11.980Z,0.70
2023-02-28T22:36:14.780Z,0.90
2023-02-28T22:38:16.355Z,0.70
2023-02-28T22:40:20.555Z,0.98
2023-02-28T22:42:24.573Z,1.08
2023-02-28T22:44:26.038Z,0.80
2023-02-28T22:46:34.795Z,0.90
2023-02-28T22:48:39.567Z,1.90
2023-02-28T22:50:43.856Z,1.20
2023-02-28T22:52:45.329Z,0.80
2023-02-28T22:54:53.325Z,1.00
2023-02-28T22:56:57.487Z,0.75
2023-02-28T22:59:01.838Z,1.00
2023-02-28T23:01:07.551Z,1.52
2023-02-28T23:03:27.604Z,3.10
2023-02-28T23:05:31.774Z,6.32
2023-02-28T23:07:33.268Z,5.43
2023-02-28T23:09:37.906Z,5.20
2023-02-28T23:11:40.796Z,5.78
2023-02-28T23:13:58.506Z,6.60
2023-02-28T23:16:00.178Z,6.35
2023-02-28T23:18:20.092Z,6.30
2023-02-28T23:20:21.731Z,6.13
2023-02-28T23:22:29.012Z,7.43
2023-02-28T23:24:37.290Z,6.28
2023-02-28T23:26:58.795Z,7.20
2023-02-28T23:29:01.249Z,6.38
2023-02-28T23:31:05.547Z,7.15
2023-02-28T23:33:10.959Z,6.40
2023-02-28T23:35:14.083Z,6.68
2023-02-28T23:37:17.323Z,7.40
2023-02-28T23:39:21.792Z,7.43
2023-02-28T23:41:26.070Z,7.95
2023-02-28T23:43:32.672Z,7.45
2023-02-28T23:45:36.429Z,6.97
2023-02-28T23:47:40.127Z,6.93
2023-02-28T23:49:46.490Z,7.20
2023-02-28T23:51:51.056Z,6.53
2023-02-28T23:54:00.726Z,7.03
2023-02-28T23:56:09.120Z,8.07
2023-02-28T23:58:13.011Z,8.23
